Time;durP1;ratioP1;P1;durP2;ratioP2;P2;SDS_P1;SDS_P2;PMS_P1;PMS_P2;Temp;Humidity;BMP_temperature;BMP_pressure;BME280_temperature;BME280_humidity;BME280_pressure;Samples;Min_cycle;Max_cycle;Signal;HPM_P1;HPM_P2
2022/11/01 00:02:03;;;;;;;15.15;4.85;;;15.40;99.90;;;14.77;100.00;97269.66;4961161;28;20157;-72
2022/11/01 00:04:29;;;;;;;9.52;4.25;;;15.30;99.90;;;14.85;100.00;97272.63;4973170;28;20057;-72
2022/11/01 00:06:56;;;;;;;20.23;5.90;;;15.30;99.90;;;14.81;100.00;97268.53;4962474;28;20066;-73
2022/11/01 00:09:23;;;;;;;12.45;4.55;;;15.30;99.90;;;14.89;100.00;97268.00;4976679;28;20058;-72
2022/11/01 00:11:50;;;;;;;13.55;5.28;;;15.30;99.90;;;14.79;100.00;97263.38;4960714;28;20054;-71
2022/11/01 00:14:18;;;;;;;12.25;4.43;;;15.30;99.90;;;14.89;100.00;97257.56;4961354;28;20745;-70
2022/11/01 00:16:46;;;;;;;16.73;5.10;;;15.40;99.90;;;14.89;100.00;97255.78;4961207;28;20054;-73
2022/11/01 00:19:13;;;;;;;14.48;5.07;;;15.40;99.90;;;14.92;100.00;97252.97;4961156;28;20121;-72
2022/11/01 00:21:40;;;;;;;14.32;5.78;;;15.40;99.90;;;14.89;100.00;97265.41;4959608;28;20051;-70
2022/11/01 00:24:07;;;;;;;13.02;5.03;;;15.40;99.90;;;14.98;100.00;97260.41;4962612;28;20047;-72
2022/11/01 00:26:34;;;;;;;16.92;4.72;;;15.40;99.90;;;14.94;100.00;97252.88;4962056;28;20066;-71
2022/11/01 00:29:02;;;;;;;11.75;4.45;;;15.40;99.90;;;14.92;100.00;97262.59;4975357;28;20516;-73
2022/11/01 00:31:29;;;;;;;15.30;4.90;;;15.50;99.90;;;14.94;100.00;97261.56;4959477;28;20090;-72
2022/11/01 00:33:56;;;;;;;15.77;4.72;;;15.50;99.90;;;14.90;100.00;97259.25;4960196;28;20058;-72
2022/11/01 00:36:23;;;;;;;11.32;4.78;;;15.40;99.90;;;14.94;100.00;97252.88;4960935;28;20050;-72
2022/11/01 00:38:52;;;;;;;12.02;4.53;;;15.40;99.90;;;14.82;100.00;97252.75;4959721;28;20843;-72
2022/11/01 00:41:20;;;;;;;13.13;4.45;;;15.30;99.90;;;14.85;100.00;97252.53;4961206;28;20054;-70
2022/11/01 00:43:47;;;;;;;14.50;4.68;;;15.30;99.90;;;14.88;100.00;97235.81;4961705;28;20868;-72
2022/11/01 00:46:15;;;;;;;9.93;3.97;;;15.30;99.90;;;14.85;100.00;97233.44;4972689;28;20069;-72
2022/11/01 00:48:42;;;;;;;10.40;4.32;;;15.40;99.90;;;14.84;100.00;97237.78;4959971;28;20468;-73
2022/11/01 00:51:09;;;;;;;17.60;4.70;;;15.40;99.90;;;14.80;100.00;97238.94;4973597;28;20078;-72
2022/11/01 00:53:35;;;;;;;17.25;4.65;;;15.40;99.90;;;14.76;100.00;97247.09;4961167;28;20153;-72
2022/11/01 00:56:05;;;;;;;11.23;5.10;;;15.40;99.90;;;14.85;100.00;97249.94;4961451;28;20185;-71
2022/11/01 00:58:33;;;;;;;13.68;4.70;;;15.40;99.90;;;14.83;100.00;97253.59;4960177;28;20043;-71
2022/11/01 01:01:00;;;;;;;17.73;4.82;;;15.40;99.90;;;14.88;100.00;97253.28;4960871;28;20074;-71
2022/11/01 01:03:28;;;;;;;16.50;4.55;;;15.40;99.90;;;14.90;100.00;97249.63;4970162;28;20055;-72
2022/11/01 01:05:56;;;;;;;23.23;5.25;;;15.40;99.90;;;14.89;100.00;97247.09;4959477;28;20058;-73
2022/11/01 01:08:23;;;;;;;11.18;4.60;;;15.30;99.90;;;14.96;100.00;97249.25;4945429;28;20101;-73
2022/11/01 01:10:51;;;;;;;15.82;4.57;;;15.30;99.90;;;14.90;100.00;97248.81;4962056;28;20057;-72
2022/11/01 01:13:19;;;;;;;15.75;5.40;;;15.30;99.90;;;14.82;100.00;97255.38;4960257;28;20061;-72
2022/11/01 01:15:47;;;;;;;10.90;4.47;;;15.40;99.90;;;14.82;100.00;97249.28;4958726;28;20192;-72
2022/11/01 01:18:14;;;;;;;15.73;5.25;;;15.40;99.90;;;14.79;100.00;97245.09;4961405;28;20055;-72
2022/11/01 01:20:41;;;;;;;10.00;4.60;;;15.40;99.90;;;14.81;100.00;97242.41;4977905;28;20053;-72
2022/11/01 01:23:08;;;;;;;11.43;4.60;;;15.30;99.90;;;14.87;100.00;97238.53;4972545;28;20054;-72
2022/11/01 01:25:40;;;;;;;11.82;4.60;;;15.30;99.90;;;14.85;100.00;97239.47;4963803;28;20058;-71
2022/11/01 01:28:07;;;;;;;14.68;4.95;;;15.30;99.90;;;14.83;100.00;97243.13;4974988;28;20051;-71
2022/11/01 01:30:38;;;;;;;17.67;4.35;;;15.30;99.90;;;14.79;100.00;97231.19;4963252;28;20074;-71
2022/11/01 01:33:05;;;;;;;13.48;4.53;;;15.30;99.90;;;14.75;100.00;97245.41;4963957;28;20087;-72
2022/11/01 01:35:32;;;;;;;15.10;5.10;;;15.30;99.90;;;14.73;100.00;97236.81;4963668;28;20054;-73
2022/11/01 01:37:59;;;;;;;13.82;4.57;;;15.30;99.90;;;14.67;100.00;97242.47;4975084;28;20050;-72
2022/11/01 01:40:26;;;;;;;11.30;4.45;;;15.30;99.90;;;14.72;100.00;97243.81;4964763;28;20123;-73
2022/11/01 01:42:53;;;;;;;16.15;4.25;;;15.30;99.90;;;14.78;100.00;97246.03;4977111;28;20078;-72
2022/11/01 01:45:30;;;;;;;14.18;4.57;;;15.30;99.90;;;14.66;100.00;97244.22;4961744;28;20053;-71
2022/11/01 01:48:12;;;;;;;11.27;4.75;;;15.30;99.90;;;14.73;100.00;97242.88;4964336;28;20066;-72
2022/11/01 01:51:02;;;;;;;13.50;4.57;;;15.20;99.90;;;14.69;100.00;97237.94;4960211;28;20760;-71
2022/11/01 01:53:33;;;;;;;10.13;4.32;;;15.20;99.90;;;14.66;100.00;97231.16;4962895;28;20453;-71
2022/11/01 01:56:05;;;;;;;11.27;4.57;;;15.20;99.90;;;14.78;100.00;97230.38;4961662;28;20126;-72
2022/11/01 01:58:46;;;;;;;16.67;5.35;;;15.20;99.90;;;14.76;100.00;97234.84;4973683;28;20046;-72
2022/11/01 02:01:13;;;;;;;12.95;4.90;;;15.30;99.90;;;14.70;100.00;97227.41;4949175;28;20058;-70
2022/11/01 02:03:42;;;;;;;16.20;4.80;;;15.30;99.90;;;14.85;100.00;97228.19;4964241;28;20744;-72
2022/11/01 02:06:21;;;;;;;12.88;4.43;;;15.30;99.90;;;14.78;100.00;97224.28;4961375;28;20043;-73
2022/11/01 02:08:52;;;;;;;12.77;4.13;;;15.40;99.90;;;14.77;100.00;97230.47;4967298;28;20539;-73
2022/11/01 02:11:20;;;;;;;12.38;4.47;;;15.40;99.90;;;14.75;100.00;97233.16;4958843;28;20145;-72
2022/11/01 02:13:47;;;;;;;12.75;4.30;;;15.40;99.90;;;14.79;100.00;97242.47;4961946;28;20397;-72
2022/11/01 02:16:38;;;;;;;13.93;4.90;;;15.40;99.90;;;14.84;100.00;97250.84;4964429;28;20055;-73
2022/11/01 02:20:01;;;;;;;11.90;4.03;;;15.40;99.90;;;14.72;100.00;97284.78;4964865;28;20065;-73
2022/11/01 02:23:06;;;;;;;18.70;5.85;;;15.40;99.90;;;14.15;100.00;97298.75;4964241;28;20054;-73
2022/11/01 02:26:06;;;;;;;15.65;5.93;;;15.00;99.90;;;13.55;100.00;97258.88;4979914;28;20138;-74
2022/11/01 02:28:52;;;;;;;19.33;7.03;;;14.40;99.90;;;13.40;100.00;97233.69;4962833;28;20043;-73
2022/11/01 02:31:31;;;;;;;15.77;6.03;;;14.10;99.90;;;13.28;100.00;97214.41;4963674;28;20085;-73
2022/11/01 02:34:18;;;;;;;17.95;6.50;;;13.90;99.90;;;13.17;100.00;97201.97;4974992;28;20050;-73
2022/11/01 02:36:54;;;;;;;14.75;6.47;;;13.80;99.90;;;13.12;100.00;97183.19;4975613;28;20125;-73
2022/11/01 02:39:27;;;;;;;21.10;8.38;;;13.70;99.90;;;13.06;100.00;97156.66;4964868;28;20054;-73
2022/11/01 02:42:19;;;;;;;14.27;7.38;;;13.60;99.90;;;13.02;100.00;97150.75;4963280;28;20416;-73
2022/11/01 02:45:01;;;;;;;20.60;7.53;;;13.60;99.90;;;13.00;100.00;97142.22;4963812;28;20047;-73
2022/11/01 02:47:30;;;;;;;16.35;8.05;;;13.50;99.90;;;12.93;100.00;97141.75;4979354;28;20051;-73
2022/11/01 02:50:05;;;;;;;17.67;8.27;;;13.50;99.90;;;12.91;100.00;97137.56;4964002;28;20054;-73
2022/11/01 02:52:36;;;;;;;20.45;8.95;;;13.50;99.90;;;12.92;100.00;97137.44;4963649;28;20057;-73
2022/11/01 02:55:28;;;;;;;14.95;8.07;;;13.50;99.90;;;12.94;100.00;97126.94;4964875;28;20065;-73
2022/11/01 02:58:24;;;;;;;14.75;8.25;;;13.40;99.90;;;12.93;100.00;97136.53;4978709;28;20161;-73
2022/11/01 03:00:51;;;;;;;19.13;8.60;;;13.40;99.90;;;12.91;100.00;97143.59;4964250;28;20066;-73
2022/11/01 03:03:25;;;;;;;15.45;7.53;;;13.50;99.90;;;12.93;100.00;97148.69;4962544;28;20047;-73
2022/11/01 03:06:04;;;;;;;20.88;8.50;;;13.50;99.90;;;12.97;100.00;97156.25;4960412;28;20062;-73
2022/11/01 03:08:46;;;;;;;15.85;8.65;;;13.50;99.90;;;12.96;100.00;97159.78;4966425;28;20059;-72
2022/11/01 03:11:19;;;;;;;16.85;7.70;;;13.40;99.90;;;12.88;100.00;97166.38;4966404;28;20397;-73
2022/11/01 03:14:18;;;;;;;16.05;7.82;;;13.40;99.90;;;12.94;100.00;97173.84;4962776;28;20062;-73
2022/11/01 03:16:58;;;;;;;14.30;8.13;;;13.50;99.90;;;12.94;100.00;97179.88;4964702;28;20386;-73
2022/11/01 03:19:42;;;;;;;17.35;9.02;;;13.50;99.90;;;12.95;100.00;97172.91;4965180;28;20595;-73
2022/11/01 03:22:23;;;;;;;17.15;7.95;;;13.50;99.90;;;13.06;100.00;97180.09;4961412;28;20047;-73
2022/11/01 03:25:38;;;;;;;13.82;7.35;;;13.50;99.90;;;13.05;100.00;97188.84;4961449;28;21752;-73
2022/11/01 03:28:02;;;;;;;14.48;7.15;;;13.50;99.90;;;13.05;100.00;97188.84;4964016;28;20683;-73
2022/11/01 03:30:32;;;;;;;16.17;7.35;;;13.50;99.90;;;13.05;100.00;97188.84;4963292;28;20157;-72
2022/11/01 03:32:59;;;;;;;15.63;7.10;;;13.60;99.90;;;13.07;100.00;97206.06;4963125;28;20051;-74
2022/11/01 03:35:34;;;;;;;17.88;7.63;;;13.60;99.90;;;13.05;100.00;97218.34;4963917;28;20066;-72
2022/11/01 03:38:07;;;;;;;10.38;7.10;;;13.60;99.90;;;13.12;100.00;97224.03;4961648;28;20113;-73
2022/11/01 03:40:34;;;;;;;;;;;13.60;99.90;;;13.09;100.00;97235.47;4977063;28;20047;-72
2022/11/01 03:43:05;;;;;;;10.90;5.45;;;13.60;99.90;;;13.15;100.00;97232.50;4960701;28;19937;-73
2022/11/01 03:45:37;;;;;;;11.70;6.18;;;13.70;99.90;;;13.16;100.00;97251.59;4977016;28;20653;-72
2022/11/01 03:48:04;;;;;;;12.27;5.75;;;13.60;99.90;;;13.09;100.00;97240.69;4964536;28;20445;-72
2022/11/01 03:50:32;;;;;;;8.25;4.90;;;13.70;99.90;;;13.28;100.00;97258.72;4959800;28;20193;-73
2022/11/01 03:52:59;;;;;;;15.70;4.95;;;13.60;99.90;;;13.57;100.00;97282.22;4960129;28;20077;-73
2022/11/01 03:55:26;;;;;;;7.78;3.67;;;13.70;99.90;;;14.07;100.00;97290.53;4973763;28;20054;-73
2022/11/01 03:57:58;;;;;;;7.68;3.70;;;13.70;99.90;;;18.09;100.00;97273.22;4961294;28;20070;-72
2022/11/01 04:00:41;;;;;;;8.45;2.95;;;13.70;99.90;;;21.41;100.00;97200.28;4976857;28;20098;-71
2022/11/01 04:03:10;;;;;;;7.75;3.47;;;13.70;99.90;;;16.00;100.00;97296.34;4960870;28;20122;-73
2022/11/01 04:05:39;;;;;;;7.10;3.60;;;13.70;99.90;;;14.07;100.00;97308.81;4962517;28;20053;-72
2022/11/01 04:08:09;;;;;;;9.30;4.22;;;13.80;99.90;;;13.95;100.00;97307.78;4961868;28;20146;-73
2022/11/01 04:10:36;;;;;;;10.75;3.95;;;13.80;99.90;;;13.98;100.00;97290.19;4963719;28;20051;-73
2022/11/01 04:13:04;;;;;;;8.50;4.65;;;13.80;99.90;;;14.02;100.00;97303.88;4960788;28;20055;-72
2022/11/01 04:21:14;;;;;;;9.75;4.90;;;13.80;99.90;;;13.88;100.00;97303.88;4962901;28;20173;-72
2022/11/01 04:23:43;;;;;;;12.57;4.90;;;13.90;99.90;;;13.75;100.00;97322.03;4960623;28;20057;-72
2022/11/01 04:26:13;;;;;;;11.07;5.45;;;13.90;99.90;;;13.77;100.00;97334.03;4962654;28;20051;-72
2022/11/01 04:28:41;;;;;;;11.25;5.15;;;13.90;99.90;;;13.76;100.00;97342.81;4962721;28;20054;-72
2022/11/01 04:31:07;;;;;;;9.43;4.97;;;13.90;99.90;;;13.75;100.00;97337.69;4963731;28;20055;-72
2022/11/01 04:33:34;;;;;;;11.52;5.53;;;14.00;99.90;;;13.75;100.00;97340.28;4961120;28;20057;-71
2022/11/01 04:36:08;;;;;;;11.90;5.30;;;14.00;99.90;;;13.76;100.00;97363.69;4959228;28;20054;-72
2022/11/01 04:38:34;;;;;;;9.07;4.97;;;14.00;99.90;;;13.80;100.00;97354.75;4977120;28;20078;-73
2022/11/01 04:41:01;;;;;;;12.13;5.35;;;14.00;99.90;;;13.83;100.00;97355.50;4960663;28;20058;-72
2022/11/01 04:43:28;;;;;;;9.85;5.38;;;14.00;99.90;;;13.87;100.00;97370.06;4976988;28;20050;-72
2022/11/01 04:45:56;;;;;;;11.75;6.28;;;14.00;99.90;;;13.83;100.00;97386.81;4962208;28;20061;-73
2022/11/01 04:48:25;;;;;;;11.27;5.93;;;14.00;99.90;;;13.86;100.00;97387.44;4963878;28;20047;-73
2022/11/01 04:50:52;;;;;;;11.25;5.45;;;14.00;99.90;;;13.86;100.00;97399.66;4978336;28;20646;-71
2022/11/01 04:53:18;;;;;;;10.15;5.85;;;14.00;99.90;;;13.86;100.00;97397.06;4960585;28;20054;-72
2022/11/01 04:55:45;;;;;;;14.27;6.20;;;14.10;99.90;;;13.92;100.00;97401.91;4963630;28;20534;-73
2022/11/01 04:58:13;;;;;;;12.50;6.13;;;14.10;99.90;;;13.83;100.00;97402.47;4965283;28;20050;-72
2022/11/01 05:00:42;;;;;;;9.73;5.28;;;14.10;99.90;;;13.85;100.00;97429.31;4967226;28;20058;-72
2022/11/01 05:03:10;;;;;;;12.20;6.07;;;14.20;99.90;;;13.85;100.00;97435.34;4963789;28;20113;-72
2022/11/01 05:05:38;;;;;;;9.57;5.60;;;14.20;99.90;;;13.95;100.00;97393.91;4982915;28;20053;-72
2022/11/01 05:08:11;;;;;;;15.52;5.78;;;14.20;99.90;;;13.90;100.00;97398.56;4966083;28;20086;-72
2022/11/01 05:10:42;;;;;;;12.68;5.25;;;14.30;99.90;;;13.91;100.00;97411.53;4965248;28;20523;-72
2022/11/01 05:13:10;;;;;;;11.52;5.25;;;14.30;99.90;;;13.98;100.00;97404.16;4968007;28;20053;-72
2022/11/01 05:15:37;;;;;;;7.03;4.60;;;14.30;99.90;;;13.99;100.00;97400.63;4964051;28;20069;-72
2022/11/01 05:18:09;;;;;;;9.50;5.15;;;14.30;99.90;;;13.89;100.00;97413.38;4965167;28;20080;-72
2022/11/01 05:20:36;;;;;;;9.98;5.47;;;14.30;99.90;;;13.94;100.00;97398.28;4963940;28;20709;-70
2022/11/01 05:23:04;;;;;;;12.07;5.70;;;14.40;99.90;;;13.99;100.00;97392.78;4964921;28;20062;-71
2022/11/01 05:25:32;;;;;;;9.25;4.75;;;14.40;99.90;;;13.99;100.00;97426.72;4966399;28;20090;-72
2022/11/01 05:28:09;;;;;;;11.77;5.75;;;14.40;99.90;;;14.01;100.00;97410.03;4965974;28;20094;-72
2022/11/01 05:30:37;;;;;;;9.23;4.72;;;14.40;99.90;;;13.96;100.00;97411.25;4963093;28;20054;-72
2022/11/01 05:33:06;;;;;;;7.65;4.15;;;14.40;99.90;;;14.00;100.00;97410.13;4978551;28;20055;-73
2022/11/01 05:35:34;;;;;;;9.63;4.85;;;14.40;99.90;;;13.97;100.00;97412.91;4962734;28;20047;-72
2022/11/01 05:38:03;;;;;;;11.98;4.63;;;14.40;99.90;;;14.00;100.00;97420.56;4963061;28;20050;-72
2022/11/01 05:40:31;;;;;;;8.95;4.85;;;14.40;99.90;;;14.06;100.00;97421.97;4978465;28;20054;-72
2022/11/01 05:42:58;;;;;;;8.52;4.32;;;14.50;99.90;;;14.01;100.00;97422.25;4978153;28;20046;-72
2022/11/01 05:45:26;;;;;;;9.02;3.80;;;14.50;99.90;;;14.05;100.00;97410.72;4964075;28;20039;-72
2022/11/01 05:47:53;;;;;;;9.55;3.90;;;14.50;99.90;;;14.01;100.00;97398.75;4964229;28;20051;-72
2022/11/01 05:50:19;;;;;;;13.23;5.03;;;14.50;99.90;;;14.01;100.00;97404.81;4966350;28;20050;-71
2022/11/01 05:52:48;;;;;;;12.45;4.88;;;14.50;99.90;;;14.06;100.00;97391.50;4966766;28;20397;-72
2022/11/01 05:55:15;;;;;;;8.18;4.00;;;14.50;99.90;;;14.00;100.00;97410.13;4963563;28;20051;-72
2022/11/01 05:57:42;;;;;;;12.93;5.60;;;14.50;99.90;;;13.97;100.00;97405.09;4977110;28;20054;-72
2022/11/01 06:00:10;;;;;;;8.60;3.97;;;14.50;99.90;;;14.06;100.00;97407.16;4967317;28;20058;-72
2022/11/01 06:02:37;;;;;;;8.57;4.00;;;14.40;99.90;;;13.99;100.00;97390.19;4963758;28;21823;-72
2022/11/01 06:05:05;;;;;;;8.73;4.30;;;14.50;99.90;;;13.99;100.00;97395.41;4962206;28;20517;-72
2022/11/01 06:07:35;;;;;;;12.70;4.35;;;14.50;99.90;;;13.90;100.00;97404.63;4977729;28;20065;-72
2022/11/01 06:10:04;;;;;;;10.15;4.50;;;14.50;99.90;;;13.98;100.00;97398.94;4964765;28;20058;-72
2022/11/01 06:12:30;;;;;;;11.73;4.30;;;14.50;99.90;;;13.99;100.00;97403.22;4964342;28;20440;-70
2022/11/01 06:14:57;;;;;;;7.43;3.75;;;14.50;99.90;;;14.03;100.00;97415.19;4967473;28;20107;-72
2022/11/01 06:17:24;;;;;;;8.70;4.13;;;14.50;99.90;;;14.02;100.00;97401.25;4966053;28;20062;-72
2022/11/01 06:19:51;;;;;;;8.07;3.83;;;14.50;99.90;;;14.05;100.00;97402.88;4968721;28;20054;-73
2022/11/01 06:22:18;;;;;;;8.00;3.65;;;14.60;99.90;;;14.10;100.00;97402.59;4981493;28;20050;-70
2022/11/01 06:24:45;;;;;;;6.80;3.72;;;14.50;99.90;;;14.10;100.00;97405.22;4980676;28;20054;-71
2022/11/01 06:27:12;;;;;;;8.82;3.50;;;14.50;99.90;;;14.09;100.00;97406.13;4967712;28;20059;-72
2022/11/01 06:29:39;;;;;;;8.50;2.78;;;14.60;99.90;;;14.09;100.00;97391.31;4966549;28;20043;-72
2022/11/01 06:32:06;;;;;;;9.27;3.42;;;14.60;99.90;;;14.09;100.00;97408.75;4981895;28;20062;-72
2022/11/01 06:34:33;;;;;;;8.57;3.78;;;14.60;99.90;;;14.06;100.00;97388.06;4980987;28;20081;-72
2022/11/01 06:37:00;;;;;;;11.88;4.00;;;14.70;99.90;;;14.07;100.00;97385.38;4979341;28;20066;-72
2022/11/01 06:39:27;;;;;;;9.27;3.28;;;14.60;99.90;;;14.07;100.00;97387.09;4966554;28;20046;-73
2022/11/01 06:41:54;;;;;;;7.68;3.67;;;14.70;99.90;;;14.05;100.00;97382.00;4965390;28;20055;-71
2022/11/01 06:44:21;;;;;;;9.10;3.13;;;14.60;99.90;;;14.11;100.00;97383.38;4964823;28;20058;-73
2022/11/01 06:46:48;;;;;;;7.93;2.97;;;14.60;99.90;;;14.11;100.00;97379.00;4965434;28;20047;-72
2022/11/01 06:49:15;;;;;;;8.32;3.53;;;14.60;99.90;;;14.14;100.00;97394.50;4966330;28;20176;-72
2022/11/01 06:51:46;;;;;;;9.75;3.35;;;14.60;99.90;;;14.16;100.00;97408.31;4963876;28;20115;-72
2022/11/01 06:54:13;;;;;;;8.25;3.30;;;14.60;99.90;;;14.11;100.00;97402.50;4963364;28;20054;-72
2022/11/01 06:56:40;;;;;;;8.40;3.03;;;14.70;99.90;;;14.13;100.00;97382.38;4965339;28;20045;-71
2022/11/01 06:59:07;;;;;;;8.73;3.33;;;14.60;99.90;;;14.11;100.00;97389.44;4965568;28;20099;-72
2022/11/01 07:01:34;;;;;;;7.00;2.35;;;14.60;99.90;;;14.20;100.00;97404.56;4963343;28;20070;-73
2022/11/01 07:04:01;;;;;;;7.75;2.80;;;14.60;99.90;;;14.16;100.00;97400.47;4963972;28;20075;-72
2022/11/01 07:06:29;;;;;;;5.32;2.38;;;14.70;99.90;;;14.19;100.00;97405.50;4977236;28;20138;-72
2022/11/01 07:08:58;;;;;;;7.28;2.58;;;14.60;99.90;;;14.20;100.00;97414.16;4976496;28;20074;-72
2022/11/01 07:11:25;;;;;;;9.75;2.85;;;14.60;99.90;;;14.20;100.00;97407.16;4979350;28;20046;-72
2022/11/01 07:13:58;;;;;;;7.15;2.60;;;14.60;99.90;;;14.22;100.00;97409.69;4965458;28;20062;-72
2022/11/01 07:16:26;;;;;;;9.32;2.65;;;14.60;99.90;;;14.16;100.00;97421.34;4958442;28;20587;-72
2022/11/01 07:18:53;;;;;;;7.45;2.30;;;14.60;99.90;;;14.12;100.00;97422.47;4968959;28;20078;-71
2022/11/01 07:21:20;;;;;;;7.88;2.80;;;14.60;99.90;;;14.17;100.00;97409.13;4963357;28;20046;-73
2022/11/01 07:23:47;;;;;;;6.25;2.78;;;14.60;99.90;;;14.13;100.00;97418.06;4963453;28;20480;-72
2022/11/01 07:26:15;;;;;;;6.40;2.50;;;14.60;99.90;;;14.11;100.00;97436.44;4963360;28;20047;-73
2022/11/01 07:28:41;;;;;;;6.03;2.60;;;14.60;99.90;;;14.18;100.00;97423.84;4966783;28;20043;-72
2022/11/01 07:31:08;;;;;;;7.70;2.67;;;14.60;99.90;;;14.02;100.00;97436.97;4966632;28;20062;-73
2022/11/01 07:33:35;;;;;;;6.53;2.60;;;14.60;99.90;;;13.86;100.00;97434.41;4964070;28;20059;-73
2022/11/01 07:36:04;;;;;;;6.97;3.03;;;14.50;99.90;;;14.10;100.00;97439.97;4966370;28;20070;-73
2022/11/01 07:38:31;;;;;;;7.13;1.92;;;14.40;99.90;;;13.80;100.00;97445.22;4968030;28;20089;-73
2022/11/01 07:40:58;;;;;;;4.72;2.38;;;14.30;99.90;;;13.80;100.00;97451.28;4966947;28;20066;-72
2022/11/01 07:43:25;;;;;;;5.25;2.10;;;14.20;99.90;;;13.76;100.00;97472.41;4965863;28;20054;-73
2022/11/01 07:45:52;;;;;;;8.07;2.05;;;14.20;99.90;;;13.71;100.00;97469.22;4963789;28;20116;-72
2022/11/01 07:48:19;;;;;;;6.88;1.58;;;14.10;99.90;;;13.76;100.00;97454.97;4966242;28;20065;-72
2022/11/01 07:50:46;;;;;;;4.82;1.75;;;14.00;99.90;;;13.66;100.00;97461.66;4979094;28;20070;-72
2022/11/01 07:53:16;;;;;;;9.35;2.00;;;14.00;99.90;;;13.69;100.00;97468.47;4964603;28;20489;-72
2022/11/01 07:55:44;;;;;;;5.07;1.70;;;14.00;99.90;;;13.64;100.00;97476.56;4963185;28;20088;-73
2022/11/01 07:58:13;;;;;;;4.63;1.90;;;14.00;99.90;;;13.65;100.00;97475.63;4964103;28;20064;-73
2022/11/01 08:00:42;;;;;;;4.15;1.40;;;14.00;99.90;;;13.66;100.00;97468.63;4965860;28;20081;-73
2022/11/01 08:03:12;;;;;;;8.32;1.88;;;14.00;99.90;;;13.59;100.00;97483.78;4964586;28;20115;-73
2022/11/01 08:05:41;;;;;;;6.47;1.52;;;14.00;99.90;;;13.59;100.00;97487.25;4964849;28;20513;-72
2022/11/01 08:08:08;;;;;;;2.88;1.35;;;14.00;99.90;;;13.48;100.00;97510.47;4979192;28;20484;-72
2022/11/01 08:10:36;;;;;;;4.13;1.10;;;14.00;99.90;;;13.28;100.00;97518.56;4964287;28;20065;-72
2022/11/01 08:13:17;;;;;;;7.05;1.00;;;14.00;99.90;;;12.97;100.00;97551.41;4963992;28;20141;-72
2022/11/01 08:15:45;;;;;;;3.90;0.80;;;13.70;99.90;;;12.74;100.00;97556.06;4978496;28;20070;-73
2022/11/01 08:18:13;;;;;;;3.50;0.80;;;13.30;99.90;;;12.64;100.00;97560.06;4979853;28;20441;-72
2022/11/01 08:20:40;;;;;;;6.28;0.90;;;12.90;99.90;;;12.55;100.00;97565.75;4975595;28;20049;-73
2022/11/01 08:23:08;;;;;;;4.60;0.95;;;12.70;99.90;;;12.45;100.00;97581.00;4965437;28;20070;-72
2022/11/01 08:25:35;;;;;;;1.45;0.60;;;12.70;99.90;;;12.41;100.00;97620.28;4965134;28;20057;-73
2022/11/01 08:28:14;;;;;;;3.40;0.55;;;12.70;99.90;;;12.39;100.00;97633.34;4964007;28;20054;-73
2022/11/01 08:30:44;;;;;;;2.75;0.65;;;12.80;99.90;;;12.34;100.00;97630.16;4977071;28;20050;-72
2022/11/01 08:33:11;;;;;;;4.80;1.00;;;12.90;99.90;;;12.29;100.00;97659.00;4964197;28;20580;-72
2022/11/01 08:35:38;;;;;;;2.85;0.60;;;13.00;99.90;;;12.29;100.00;97668.53;4949950;28;20187;-73
2022/11/01 08:38:05;;;;;;;3.78;0.90;;;13.10;99.90;;;12.36;100.00;97654.31;4963351;28;20057;-72
2022/11/01 08:40:33;;;;;;;3.58;0.52;;;13.20;99.90;;;12.40;100.00;97689.69;4979405;28;21032;-72
2022/11/01 08:43:00;;;;;;;5.03;1.73;;;13.30;99.90;;;12.48;100.00;97684.97;4976249;28;20066;-71
2022/11/01 08:45:27;;;;;;;6.07;1.38;;;13.40;99.90;;;12.55;100.00;97675.94;4973224;28;20141;-71
2022/11/01 08:47:59;;;;;;;3.78;0.85;;;13.50;99.90;;;12.73;100.00;97676.81;4965394;28;20054;-72
2022/11/01 08:50:27;;;;;;;3.27;0.97;;;13.50;99.90;;;12.65;100.00;97670.28;4961747;28;20067;-72
2022/11/01 08:52:54;;;;;;;6.15;0.70;;;13.50;99.90;;;12.38;100.00;97695.91;4960804;28;20047;-72
2022/11/01 08:55:21;;;;;;;4.40;0.90;;;13.40;99.90;;;12.38;100.00;97688.91;4965208;28;20046;-72
2022/11/01 08:57:49;;;;;;;4.60;0.60;;;13.40;99.90;;;12.55;100.00;97699.38;4964037;28;20054;-72
2022/11/01 09:00:16;;;;;;;4.47;0.65;;;13.40;99.90;;;12.49;100.00;97698.81;4961609;28;20141;-72
2022/11/01 09:02:43;;;;;;;7.63;1.15;;;13.30;99.90;;;12.64;100.00;97695.47;4962615;28;20054;-72
2022/11/01 09:05:10;;;;;;;7.28;0.73;;;13.40;99.90;;;12.67;100.00;97702.31;4962722;28;20070;-73
2022/11/01 09:07:38;;;;;;;4.15;0.73;;;13.40;99.90;;;12.65;100.00;97697.16;4962598;28;20429;-72
2022/11/01 09:10:07;;;;;;;3.30;0.65;;;13.50;99.90;;;12.71;100.00;97701.25;4979348;28;20062;-72
2022/11/01 09:12:34;;;;;;;3.67;0.60;;;13.60;99.90;;;12.81;100.00;97699.00;4964723;28;20121;-72
2022/11/01 09:15:03;;;;;;;5.97;0.60;;;13.60;99.90;;;12.63;100.00;97717.22;4963308;28;20086;-72
2022/11/01 09:17:30;;;;;;;4.53;0.70;;;13.50;99.90;;;12.38;100.00;97716.72;4961782;28;20412;-72
2022/11/01 09:19:57;;;;;;;8.57;1.48;;;13.40;99.90;;;12.45;100.00;97724.19;4977518;28;20058;-72
2022/11/01 09:22:25;;;;;;;4.15;1.05;;;13.40;99.90;;;12.40;100.00;97718.31;4963153;28;20588;-73
2022/11/01 09:24:54;;;;;;;6.72;1.38;;;13.20;99.90;;;12.35;100.00;97736.78;4964039;28;20118;-72
2022/11/01 09:27:21;;;;;;;7.88;1.10;;;13.20;99.90;;;12.43;100.00;97739.03;4964752;28;20054;-72
2022/11/01 09:29:48;;;;;;;4.00;0.80;;;13.20;99.90;;;12.56;100.00;97740.09;4963596;28;20065;-72
2022/11/01 09:32:20;;;;;;;2.35;0.68;;;13.30;99.90;;;12.38;100.00;97755.75;4959999;28;20096;-72
2022/11/01 09:34:48;;;;;;;5.32;0.77;;;13.30;99.90;;;12.36;100.00;97763.63;4960071;28;20857;-72
2022/11/01 09:37:15;;;;;;;3.88;0.90;;;13.40;99.90;;;12.64;100.00;97752.78;4962205;28;20401;-71
2022/11/01 09:39:42;;;;;;;4.70;0.90;;;13.50;99.90;;;12.60;100.00;97766.00;4962828;28;20059;-71
2022/11/01 09:42:16;;;;;;;9.75;1.08;;;13.50;99.90;;;12.64;100.00;97767.56;4962682;28;20114;-71
2022/11/01 09:44:47;;;;;;;3.05;0.63;;;13.40;99.90;;;12.40;100.00;97765.19;4961440;28;20055;-72
2022/11/01 09:47:24;;;;;;;4.32;0.75;;;13.40;99.90;;;12.59;100.00;97777.34;4980888;28;20051;-72
2022/11/01 09:50:18;;;;;;;4.32;0.82;;;13.30;99.90;;;12.25;100.00;97781.53;4967525;28;20484;-72
2022/11/01 09:52:44;;;;;;;4.22;1.00;;;13.40;99.90;;;12.43;100.00;97785.03;4981028;28;20054;-72
2022/11/01 09:55:14;;;;;;;2.85;0.65;;;13.50;99.90;;;12.60;100.00;97771.22;4964461;28;20090;-72
2022/11/01 09:58:05;;;;;;;6.57;1.00;;;13.50;99.90;;;12.66;100.00;97774.38;4980150;28;20168;-73
2022/11/01 10:00:44;;;;;;;7.22;0.98;;;13.50;99.90;;;12.64;100.00;97791.00;4965339;28;20581;-70
2022/11/01 10:03:46;;;;;;;5.63;0.77;;;13.40;99.90;;;12.63;100.00;97781.47;4965126;28;20778;-71
2022/11/01 10:06:23;;;;;;;6.82;0.68;;;13.50;99.90;;;12.46;100.00;97795.31;4968439;28;20500;-70
2022/11/01 10:09:56;;;;;;;4.03;0.90;;;13.50;99.90;;;12.72;100.00;97786.25;4964182;28;20154;-71
2022/11/01 10:12:53;;;;;;;8.10;0.80;;;13.60;99.90;;;12.82;100.00;97779.69;4961058;28;20054;-71
2022/11/01 10:15:49;;;;;;;6.18;0.90;;;13.60;99.90;;;12.97;100.00;97775.47;4962224;28;20055;-71
2022/11/01 10:18:48;;;;;;;4.82;0.65;;;13.60;99.90;;;12.94;100.00;97779.09;4977789;28;20047;-71
2022/11/01 10:21:17;;;;;;;6.50;0.80;;;13.60;99.90;;;12.84;100.00;97785.69;4958253;28;20146;-71
2022/11/01 10:23:52;;;;;;;5.15;0.70;;;13.60;99.90;;;12.98;100.00;97769.38;4977907;28;20055;-71
2022/11/01 10:26:28;;;;;;;5.07;0.85;;;13.70;99.90;;;13.03;100.00;97784.78;4974390;28;20051;-71
2022/11/01 10:29:29;;;;;;;6.43;1.10;;;13.70;99.90;;;13.03;100.00;97788.22;4965337;28;20058;-70
2022/11/01 10:31:57;;;;;;;8.75;1.10;;;13.80;99.90;;;12.94;100.00;97799.94;4978499;28;20043;-71
2022/11/01 10:34:31;;;;;;;5.03;0.82;;;13.80;99.90;;;12.93;100.00;97800.88;4976676;28;20046;-71